Time;durP1;ratioP1;P1;durP2;ratioP2;P2;SDS_P1;SDS_P2;PMS_P1;PMS_P2;Temp;Humidity;BMP_temperature;BMP_pressure;BME280_temperature;BME280_humidity;BME280_pressure;Samples;Min_cycle;Max_cycle;Signal;HPM_P1;HPM_P2
2022/10/17 00:04:01;;;;;;;16.97;5.40;;;15.40;99.90;;;;;;20912654;28;20726;-66
2022/10/17 00:14:03;;;;;;;13.07;5.57;;;15.20;99.90;;;;;;20929834;28;20286;-69
2022/10/17 00:24:05;;;;;;;56.70;6.40;;;15.20;99.90;;;;;;20923818;28;20235;-68
2022/10/17 00:34:07;;;;;;;26.77;5.23;;;15.20;99.90;;;;;;20927279;28;20211;-69
2022/10/17 00:44:30;;;;;;;8.50;5.10;;;15.20;99.90;;;;;;20927358;28;20291;-68
2022/10/17 00:54:36;;;;;;;40.60;6.00;;;15.20;99.90;;;;;;20926207;28;20207;-69
2022/10/17 01:04:40;;;;;;;24.77;5.63;;;15.20;99.90;;;;;;20925418;28;20231;-68
2022/10/17 01:14:47;;;;;;;36.67;5.90;;;15.00;99.90;;;;;;20924804;28;20297;-70
2022/10/17 01:25:06;;;;;;;24.40;4.87;;;14.90;99.90;;;;;;20924112;28;20236;-69
2022/10/17 01:35:11;;;;;;;21.27;5.50;;;14.90;99.90;;;;;;20923188;28;20656;-69
2022/10/17 01:45:18;;;;;;;15.63;5.50;;;14.80;99.90;;;;;;20922369;28;20243;-68
2022/10/17 01:55:41;;;;;;;20.50;5.43;;;14.90;99.90;;;;;;20921670;28;20608;-69
2022/10/17 02:05:44;;;;;;;7.93;4.70;;;14.90;99.90;;;;;;20919530;28;20645;-69
2022/10/17 02:16:03;;;;;;;22.97;5.10;;;15.00;99.90;;;;;;20920207;28;20640;-68
2022/10/17 02:26:23;;;;;;;38.80;5.90;;;15.00;99.90;;;;;;20846092;28;20240;-69
2022/10/17 02:36:30;;;;;;;46.80;4.97;;;15.00;99.90;;;;;;20834375;28;20243;-69
2022/10/17 02:46:34;;;;;;;35.77;4.47;;;14.90;99.90;;;;;;20835251;28;20229;-69
2022/10/17 02:56:47;;;;;;;29.80;4.73;;;14.80;99.90;;;;;;20834329;28;20266;-70
2022/10/17 03:06:49;;;;;;;60.00;5.03;;;14.80;99.90;;;;;;20833366;28;20282;-69
2022/10/17 03:16:50;;;;;;;102.10;5.40;;;14.70;99.90;;;;;;20833254;28;20636;-69
2022/10/17 03:26:52;;;;;;;22.20;4.70;;;14.70;99.90;;;;;;20832365;28;20295;-69
2022/10/17 03:36:54;;;;;;;134.23;6.10;;;14.40;99.90;;;;;;20831364;28;20199;-67
2022/10/17 03:46:56;;;;;;;123.53;5.40;;;14.40;99.90;;;;;;20830977;28;20692;-67
2022/10/17 03:56:58;;;;;;;19.17;3.60;;;14.30;99.90;;;;;;20830079;28;20213;-66
2022/10/17 04:06:59;;;;;;;60.43;4.67;;;14.30;99.90;;;;;;20829704;28;20282;-66
2022/10/17 04:17:01;;;;;;;40.20;4.30;;;14.30;99.90;;;;;;20829510;28;20244;-66
2022/10/17 04:27:03;;;;;;;117.30;5.30;;;14.30;99.90;;;;;;20825309;28;20682;-66
2022/10/17 04:37:04;;;;;;;20.93;4.27;;;14.30;99.90;;;;;;20826607;28;20267;-65
2022/10/17 04:47:07;;;;;;;28.80;4.60;;;14.20;99.90;;;;;;20828502;28;20290;-66
2022/10/17 04:57:09;;;;;;;33.07;4.30;;;14.20;99.90;;;;;;20838259;28;20205;-70
2022/10/17 05:07:10;;;;;;;12.33;3.63;;;14.20;99.90;;;;;;20840407;28;20234;-66
2022/10/17 05:17:12;;;;;;;84.77;8.13;;;14.20;99.90;;;;;;20841499;28;20294;-66
2022/10/17 05:27:14;;;;;;;28.57;6.30;;;14.10;99.90;;;;;;20840676;28;20250;-66
2022/10/17 05:37:15;;;;;;;25.30;8.83;;;14.00;99.90;;;;;;20840265;28;20263;-67
2022/10/17 05:47:17;;;;;;;43.67;4.43;;;14.00;99.90;;;;;;20839005;28;20716;-66
2022/10/17 05:57:19;;;;;;;56.40;7.97;;;14.00;99.90;;;;;;20837982;28;20209;-66
2022/10/17 06:07:20;;;;;;;37.80;6.30;;;14.00;99.90;;;;;;20835885;28;20234;-66
2022/10/17 06:17:22;;;;;;;42.30;4.77;;;14.00;99.90;;;;;;20839018;28;20241;-66
2022/10/17 06:27:24;;;;;;;16.00;4.53;;;14.10;99.90;;;;;;20834838;28;20290;-66
2022/10/17 06:37:30;;;;;;;17.60;4.57;;;14.10;99.90;;;;;;20833441;28;20216;-66
2022/10/17 06:47:37;;;;;;;38.97;5.60;;;14.10;99.90;;;;;;20834255;28;20233;-66
2022/10/17 06:57:39;;;;;;;24.17;5.80;;;14.10;99.90;;;;;;20832892;28;20211;-66
2022/10/17 07:07:40;;;;;;;14.63;4.17;;;14.00;99.90;;;;;;20831755;28;20648;-66
2022/10/17 07:17:51;;;;;;;35.67;4.97;;;14.10;99.90;;;;;;20830639;28;20256;-66
2022/10/17 07:27:53;;;;;;;20.67;5.67;;;14.20;99.90;;;;;;20830584;28;20236;-65
2022/10/17 07:37:55;;;;;;;34.70;6.50;;;14.30;99.90;;;;;;20830684;28;20719;-66
2022/10/17 07:47:57;;;;;;;26.50;8.83;;;14.40;99.90;;;;;;20830504;28;20699;-65
2022/10/17 07:58:01;;;;;;;36.57;17.97;;;14.50;99.90;;;;;;20829399;28;20212;-66
2022/10/17 08:08:03;;;;;;;31.63;15.27;;;14.60;99.90;;;;;;20828154;28;20228;-66
2022/10/17 08:18:05;;;;;;;24.27;13.53;;;14.60;99.90;;;;;;20827982;28;20228;-66
2022/10/17 08:28:07;;;;;;;22.97;13.40;;;14.70;99.90;;;;;;20898077;28;20234;-66
2022/10/17 08:38:13;;;;;;;27.40;13.73;;;14.80;99.90;;;;;;20925400;28;20234;-66
2022/10/17 08:48:21;;;;;;;22.40;12.73;;;15.00;99.90;;;;;;20925812;28;20232;-66
2022/10/17 08:58:26;;;;;;;21.17;11.57;;;15.30;99.90;;;;;;20925405;28;20277;-66
2022/10/17 09:08:36;;;;;;;17.43;10.17;;;15.70;99.90;;;;;;20924126;28;20274;-66
2022/10/17 09:19:23;;;;;;;19.07;10.47;;;15.90;99.90;;;;;;20923326;28;20268;-66
2022/10/17 09:29:26;;;;;;;15.00;9.33;;;16.40;99.90;;;;;;20920445;28;20231;-66
2022/10/17 09:39:36;;;;;;;11.50;8.03;;;16.70;99.90;;;;;;20921564;28;20266;-66
2022/10/17 09:49:43;;;;;;;12.33;7.50;;;17.20;99.90;;;;;;20920991;28;20781;-66
2022/10/17 10:00:06;;;;;;;7.07;4.50;;;17.60;99.90;;;;;;20920313;28;20268;-66
2022/10/17 10:10:23;;;;;;;10.70;3.57;;;18.10;99.90;;;;;;20919601;28;20239;-66
2022/10/17 10:20:35;;;;;;;7.57;3.67;;;18.50;99.90;;;;;;20918771;28;20237;-66
2022/10/17 10:30:37;;;;;;;10.40;3.60;;;18.80;99.90;;;;;;20834185;28;20648;-66
2022/10/17 10:40:48;;;;;;;7.97;3.70;;;19.20;99.90;;;;;;20833132;28;20228;-67
2022/10/17 10:51:11;;;;;;;12.43;7.77;;;19.40;99.90;;;;;;20833087;28;20668;-66
2022/10/17 11:01:45;;;;;;;12.30;5.30;;;19.70;99.90;;;;;;20832880;28;20625;-66
2022/10/17 11:12:10;;;;;;;9.57;5.60;;;20.00;99.90;;;;;;20824155;28;20237;-66
2022/10/17 11:22:22;;;;;;;9.70;5.70;;;20.30;99.90;;;;;;20830645;28;20240;-67
2022/10/17 11:32:43;;;;;;;12.13;3.83;;;20.60;99.90;;;;;;20829968;28;20235;-67
2022/10/17 11:43:01;;;;;;;9.03;3.93;;;20.90;99.90;;;;;;20830239;28;20244;-66
2022/10/17 11:53:09;;;;;;;9.20;3.20;;;21.20;99.90;;;;;;20831956;28;20262;-67
2022/10/17 12:03:35;;;;;;;12.73;4.10;;;21.60;99.90;;;;;;20828595;28;20261;-66
2022/10/17 12:13:36;;;;;;;7.27;3.40;;;21.80;99.90;;;;;;20829384;28;20240;-67
2022/10/17 12:23:40;;;;;;;7.87;3.47;;;22.10;99.90;;;;;;20827425;28;20596;-67
2022/10/17 12:33:52;;;;;;;7.83;2.70;;;22.20;99.90;;;;;;20824694;28;20338;-68
2022/10/17 12:43:54;;;;;;;9.33;2.63;;;22.30;99.50;;;;;;20827476;28;20290;-68
2022/10/17 12:54:16;;;;;;;3.37;2.13;;;22.40;98.10;;;;;;20826280;28;20274;-67
2022/10/17 13:04:18;;;;;;;9.53;2.20;;;22.50;97.10;;;;;;20826862;28;20627;-67
2022/10/17 13:14:22;;;;;;;4.57;2.20;;;22.40;96.20;;;;;;20831569;28;20785;-67
2022/10/17 13:24:33;;;;;;;4.43;2.30;;;22.60;94.60;;;;;;20840245;28;20268;-67
2022/10/17 13:34:35;;;;;;;6.23;2.23;;;22.70;93.30;;;;;;20840489;28;20238;-67
2022/10/17 13:44:36;;;;;;;4.43;1.70;;;22.80;92.00;;;;;;20839992;28;20678;-67
2022/10/17 13:54:47;;;;;;;2.13;1.93;;;22.80;91.20;;;;;;20838319;28;20208;-67
2022/10/17 14:05:09;;;;;;;5.20;1.60;;;22.90;90.70;;;;;;20836827;28;20241;-67
2022/10/17 14:15:24;;;;;;;8.33;3.20;;;22.90;90.30;;;;;;20836833;28;20236;-67
2022/10/17 14:25:30;;;;;;;3.40;2.37;;;23.00;90.00;;;;;;20834301;28;20295;-67
2022/10/17 14:35:33;;;;;;;4.50;1.93;;;23.10;89.10;;;;;;20832180;28;20211;-66
2022/10/17 14:45:45;;;;;;;5.10;2.80;;;23.40;88.30;;;;;;20833975;28;20231;-65
2022/10/17 14:56:02;;;;;;;3.67;1.90;;;23.80;85.60;;;;;;20833258;28;20201;-68
2022/10/17 15:06:25;;;;;;;6.40;2.20;;;24.40;82.70;;;;;;20832706;28;20236;-65
2022/10/17 15:16:32;;;;;;;7.43;2.03;;;24.20;81.00;;;;;;20832518;28;20793;-74
2022/10/17 15:26:34;;;;;;;6.93;3.00;;;23.60;81.80;;;;;;20831634;28;20286;-69
2022/10/17 15:36:40;;;;;;;17.80;3.60;;;23.00;84.30;;;;;;20831011;28;20247;-69
2022/10/17 15:46:42;;;;;;;5.80;2.47;;;22.50;87.50;;;;;;20830268;28;20286;-67
2022/10/17 15:56:54;;;;;;;9.90;3.60;;;22.00;89.20;;;;;;20830500;28;20205;-69
2022/10/17 16:06:56;;;;;;;5.03;2.40;;;21.70;90.50;;;;;;20829536;28;20232;-71
2022/10/17 16:16:59;;;;;;;6.73;3.00;;;21.40;91.50;;;;;;20829071;28;20715;-71
2022/10/17 16:27:00;;;;;;;4.57;2.67;;;21.20;92.10;;;;;;20828861;28;20327;-66
2022/10/17 16:37:02;;;;;;;8.67;2.30;;;21.10;92.60;;;;;;20826415;28;20208;-73
2022/10/17 16:47:04;;;;;;;7.17;4.50;;;20.90;93.10;;;;;;20830825;28;20263;-79
2022/10/17 16:57:06;;;;;;;13.10;5.60;;;20.80;93.60;;;;;;20844150;28;20212;-71
2022/10/17 17:07:07;;;;;;;12.40;4.60;;;20.50;94.30;;;;;;20842330;28;20274;-70
2022/10/17 17:17:09;;;;;;;14.70;4.27;;;20.30;95.00;;;;;;20841972;28;20243;-71
2022/10/17 17:27:30;;;;;;;10.40;4.67;;;20.00;95.70;;;;;;20879682;28;20293;-74
2022/10/17 17:37:33;;;;;;;13.10;4.70;;;19.80;96.40;;;;;;20913123;28;20401;-75
2022/10/17 17:47:34;;;;;;;12.43;5.20;;;19.60;97.00;;;;;;20840827;28;20737;-72
2022/10/17 17:57:36;;;;;;;13.63;5.57;;;19.40;97.70;;;;;;20840394;28;20205;-70
2022/10/17 18:07:38;;;;;;;11.93;6.10;;;19.20;98.20;;;;;;20838275;28;20232;-68
2022/10/17 18:17:40;;;;;;;7.93;5.20;;;19.00;98.70;;;;;;20877583;28;20233;-72
2022/10/17 18:27:42;;;;;;;8.13;5.00;;;18.80;99.20;;;;;;20918511;28;20233;-76
2022/10/17 18:37:43;;;;;;;12.80;5.67;;;18.70;99.70;;;;;;20918575;28;20208;-73
2022/10/17 18:47:46;;;;;;;11.23;5.30;;;18.60;99.90;;;;;;20844262;28;20286;-75
2022/10/17 18:57:48;;;;;;;13.20;6.23;;;18.40;99.90;;;;;;20833427;28;20208;-74
2022/10/17 19:07:50;;;;;;;11.67;5.80;;;18.30;99.90;;;;;;20832172;28;20301;-73
2022/10/17 19:17:52;;;;;;;9.97;5.37;;;18.10;99.90;;;;;;20838175;28;20284;-74
2022/10/17 19:27:53;;;;;;;17.10;6.00;;;18.10;99.90;;;;;;20914857;28;20241;-76
2022/10/17 19:37:55;;;;;;;9.70;6.10;;;18.00;99.90;;;;;;20914075;28;20588;-74
2022/10/17 19:47:57;;;;;;;9.50;5.97;;;17.80;99.90;;;;;;20914203;28;20286;-79
2022/10/17 19:58:01;;;;;;;8.97;5.63;;;17.70;99.90;;;;;;20913366;28;20253;-78
2022/10/17 20:08:03;;;;;;;10.90;6.00;;;17.50;99.90;;;;;;20912541;28;20280;-73
2022/10/17 20:18:05;;;;;;;14.10;6.30;;;17.40;99.90;;;;;;20912245;28;20233;-74
2022/10/17 20:28:07;;;;;;;17.10;6.70;;;17.30;99.90;;;;;;20924684;28;20309;-77
2022/10/17 20:38:10;;;;;;;9.57;6.23;;;17.20;99.90;;;;;;20913372;28;20719;-72
2022/10/17 20:48:14;;;;;;;16.43;6.40;;;17.20;99.90;;;;;;20902875;28;20251;-73
2022/10/17 20:58:15;;;;;;;17.00;6.70;;;17.20;99.90;;;;;;20923647;28;20261;-74
2022/10/17 21:08:17;;;;;;;15.43;6.30;;;17.10;99.90;;;;;;20923855;28;20232;-75
2022/10/17 21:18:19;;;;;;;16.90;5.97;;;17.00;99.90;;;;;;20922931;28;20241;-74
2022/10/17 21:28:20;;;;;;;14.93;6.30;;;16.90;99.90;;;;;;20921767;28;20228;-72
2022/10/17 21:38:22;;;;;;;13.20;6.97;;;16.80;99.90;;;;;;20919818;28;20618;-72
2022/10/17 21:48:24;;;;;;;20.23;6.33;;;16.70;99.90;;;;;;20920618;28;20236;-73
2022/10/17 21:58:26;;;;;;;11.37;6.10;;;16.70;99.90;;;;;;20920157;28;20279;-72
2022/10/17 22:08:29;;;;;;;13.00;6.13;;;16.60;99.90;;;;;;20921231;28;20229;-74
2022/10/17 22:18:32;;;;;;;13.63;6.03;;;16.60;99.90;;;;;;20906171;28;20281;-73
2022/10/17 22:28:34;;;;;;;12.97;5.73;;;16.60;99.90;;;;;;20914016;28;20582;-72
2022/10/17 22:38:36;;;;;;;18.53;6.00;;;16.50;99.90;;;;;;20916451;28;20254;-73
2022/10/17 22:48:37;;;;;;;12.10;5.33;;;16.40;99.90;;;;;;20914645;28;20243;-74
2022/10/17 22:58:39;;;;;;;14.37;5.43;;;16.30;99.90;;;;;;20914679;28;20211;-74
2022/10/17 23:08:42;;;;;;;9.70;5.60;;;16.20;99.90;;;;;;20914667;28;20244;-75
2022/10/17 23:18:43;;;;;;;8.47;4.80;;;16.20;99.90;;;;;;20915813;28;20221;-75
2022/10/17 23:28:45;;;;;;;12.07;5.53;;;16.10;99.90;;;;;;20915979;28;20279;-74
2022/10/17 23:38:48;;;;;;;11.17;5.23;;;16.00;99.90;;;;;;20914370;28;20239;-74
2022/10/17 23:48:51;;;;;;;17.10;5.80;;;15.90;99.90;;;;;;20915258;28;20707;-74
2022/10/17 23:58:53;;;;;;;14.37;5.57;;;15.80;99.90;;;;;;20913239;28;20276;-73
